createdAt,value
2023-04-02T00:00:00.305Z,69.3
2023-04-02T00:05:00.258Z,69.5
2023-04-02T00:10:00.473Z,69.3
2023-04-02T00:15:00.268Z,69.5
2023-04-02T00:20:00.314Z,69.3
2023-04-02T00:25:00.285Z,69.2
2023-04-02T00:30:00.277Z,69.3
2023-04-02T00:35:00.249Z,69.2
2023-04-02T00:40:00.301Z,69.5
2023-04-02T00:45:00.260Z,69.0
2023-04-02T00:50:00.296Z,69.0
2023-04-02T00:55:00.298Z,69.0
2023-04-02T01:00:00.306Z,68.6
2023-04-02T01:05:00.265Z,68.9
2023-04-02T01:10:00.323Z,68.7
2023-04-02T01:15:00.297Z,68.9
2023-04-02T01:20:00.284Z,68.8
2023-04-02T01:25:00.250Z,68.4
2023-04-02T01:30:00.297Z,68.3
2023-04-02T01:35:00.245Z,68.0
2023-04-02T01:40:00.273Z,67.4
2023-04-02T01:45:00.280Z,67.4
2023-04-02T01:50:00.291Z,67.2
2023-04-02T01:55:00.255Z,66.4
2023-04-02T02:00:00.307Z,66.4
2023-04-02T02:05:00.265Z,66.1
2023-04-02T02:10:00.294Z,66.3
2023-04-02T02:15:00.252Z,66.4
2023-04-02T02:20:00.291Z,66.3
2023-04-02T02:25:00.258Z,66.5
2023-04-02T02:30:00.300Z,66.5
2023-04-02T02:35:00.292Z,66.6
2023-04-02T02:40:00.298Z,67.0
2023-04-02T02:45:00.253Z,67.0
2023-04-02T02:50:00.288Z,67.0
2023-04-02T02:55:00.272Z,67.3
2023-04-02T03:00:00.303Z,68.0
2023-04-02T03:05:00.280Z,67.9
2023-04-02T03:10:00.283Z,68.0
2023-04-02T03:15:00.253Z,68.3
2023-04-02T03:20:00.305Z,68.6
2023-04-02T03:25:00.242Z,68.3
2023-04-02T03:30:00.299Z,68.1
2023-04-02T03:35:00.254Z,68.6
2023-04-02T03:40:00.281Z,68.7
2023-04-02T03:45:00.307Z,69.0
2023-04-02T03:50:00.294Z,68.8
2023-04-02T03:55:00.258Z,68.3
2023-04-02T04:00:00.307Z,68.6
2023-04-02T04:05:00.283Z,68.3
2023-04-02T04:10:00.292Z,68.5
2023-04-02T04:15:00.229Z,68.7
2023-04-02T04:20:00.281Z,68.5
2023-04-02T04:25:00.283Z,69.6
2023-04-02T04:30:00.283Z,69.5
2023-04-02T04:35:00.249Z,68.8
2023-04-02T04:40:00.294Z,68.7
2023-04-02T04:45:00.263Z,68.4
2023-04-02T04:50:00.288Z,69.3
2023-04-02T04:55:00.278Z,68.6
2023-04-02T05:00:00.316Z,68.0
2023-04-02T05:05:00.288Z,68.4
2023-04-02T05:10:00.281Z,68.1
2023-04-02T05:15:00.284Z,68.0
2023-04-02T05:20:00.275Z,67.6
2023-04-02T05:25:00.247Z,67.5
2023-04-02T05:30:00.279Z,67.1
2023-04-02T05:35:00.294Z,67.0
2023-04-02T05:40:00.291Z,66.5
2023-04-02T05:45:00.243Z,67.3
2023-04-02T05:50:00.334Z,67.0
2023-04-02T05:55:00.276Z,66.7
2023-04-02T06:00:00.303Z,66.2
2023-04-02T06:05:00.237Z,66.6
2023-04-02T06:10:00.306Z,66.2
2023-04-02T06:15:00.234Z,66.2
2023-04-02T06:20:00.298Z,65.8
2023-04-02T06:25:00.273Z,65.8
2023-04-02T06:30:00.291Z,65.5
2023-04-02T06:35:00.249Z,65.0
2023-04-02T06:40:00.292Z,65.3
2023-04-02T06:45:00.305Z,65.3
2023-04-02T06:50:00.305Z,64.7
2023-04-02T06:55:00.316Z,64.5
2023-04-02T07:00:00.304Z,64.4
2023-04-02T07:05:00.503Z,63.8
2023-04-02T07:10:00.312Z,63.3
2023-04-02T07:15:00.240Z,62.2
2023-04-02T07:20:00.373Z,62.3
2023-04-02T07:25:00.232Z,61.8
2023-04-02T07:30:00.288Z,62.2
2023-04-02T07:35:00.299Z,60.9
2023-04-02T07:40:00.281Z,60.1
2023-04-02T07:45:00.256Z,59.0
2023-04-02T07:50:00.425Z,58.5
2023-04-02T07:55:00.295Z,57.2
2023-04-02T08:00:00.265Z,56.6
2023-04-02T08:05:00.285Z,55.7
2023-04-02T08:10:00.251Z,53.5
2023-04-02T08:15:00.288Z,51.9
2023-04-02T08:20:00.370Z,50.3
2023-04-02T08:25:00.308Z,49.6
2023-04-02T08:30:00.238Z,47.7
2023-04-02T08:35:00.285Z,45.5
2023-04-02T08:40:00.313Z,39.0
2023-04-02T08:45:03.924Z,34.2
2023-04-02T08:50:00.274Z,43.2
2023-04-02T08:55:00.457Z,35.2
2023-04-02T09:00:00.282Z,31.7
2023-04-02T09:05:00.387Z,33.5
2023-04-02T09:10:00.233Z,30.2
2023-04-02T09:15:00.308Z,29.5
2023-04-02T09:20:00.236Z,29.1
2023-04-02T09:25:00.284Z,28.9
2023-04-02T09:30:00.271Z,28.3
2023-04-02T09:35:00.280Z,27.7
2023-04-02T09:40:00.240Z,28.3
2023-04-02T09:45:00.290Z,30.2
2023-04-02T09:50:00.280Z,31.7
2023-04-02T09:55:00.284Z,33.9
2023-04-02T10:00:00.247Z,35.5
2023-04-02T10:05:00.289Z,35.8
2023-04-02T10:10:00.281Z,34.5
2023-04-02T10:15:00.308Z,34.6
2023-04-02T10:20:00.292Z,33.9
2023-04-02T10:25:00.299Z,32.0
2023-04-02T10:30:00.228Z,32.3
2023-04-02T10:35:00.287Z,34.8
2023-04-02T10:40:00.292Z,34.6
2023-04-02T10:45:00.275Z,34.4
2023-04-02T10:50:00.244Z,35.9
2023-04-02T10:55:00.304Z,34.4
2023-04-02T11:00:00.258Z,35.3
2023-04-02T11:05:01.788Z,32.9
2023-04-02T11:10:00.296Z,34.8
2023-04-02T11:15:00.311Z,35.2
2023-04-02T11:20:00.258Z,34.6
2023-04-02T11:25:00.298Z,35.1
2023-04-02T11:30:00.256Z,35.5
2023-04-02T11:35:07.145Z,35.3
2023-04-02T11:40:00.388Z,36.2
2023-04-02T11:45:00.360Z,36.4
2023-04-02T11:50:00.246Z,52.1
2023-04-02T11:55:00.293Z,39.9
2023-04-02T12:00:00.303Z,40.6
2023-04-02T12:05:00.303Z,38.0
2023-04-02T12:10:00.253Z,32.9
2023-04-02T12:15:00.290Z,36.6
2023-04-02T12:20:00.294Z,36.6
2023-04-02T12:25:00.520Z,35.9
2023-04-02T12:30:00.243Z,36.8
2023-04-02T12:35:00.298Z,35.9
2023-04-02T12:40:00.247Z,36.5
2023-04-02T12:45:00.308Z,36.2
2023-04-02T12:50:00.273Z,35.3
2023-04-02T12:55:00.317Z,35.5
2023-04-02T13:00:00.300Z,36.5
2023-04-02T13:05:00.315Z,37.1
2023-04-02T13:10:00.302Z,36.8
2023-04-02T13:15:00.330Z,37.0
2023-04-02T13:20:00.251Z,37.4
2023-04-02T13:25:00.334Z,38.0
2023-04-02T13:30:00.257Z,38.3
2023-04-02T13:35:00.307Z,49.1
2023-04-02T13:40:00.294Z,46.4
2023-04-02T13:45:00.307Z,39.5
2023-04-02T13:50:00.266Z,40.1
2023-04-02T13:55:00.298Z,41.8
2023-04-02T14:00:00.302Z,38.7
2023-04-02T14:05:00.300Z,40.9
2023-04-02T14:10:00.253Z,40.0
2023-04-02T14:15:00.291Z,38.9
2023-04-02T14:20:00.355Z,38.7
2023-04-02T14:25:00.301Z,40.8
2023-04-02T14:30:00.260Z,40.8
2023-04-02T14:35:00.295Z,40.8
2023-04-02T14:40:00.274Z,42.2
2023-04-02T14:45:00.293Z,39.9
2023-04-02T14:50:00.308Z,43.3
2023-04-02T14:55:00.304Z,42.4
2023-04-02T15:00:00.253Z,42.9
2023-04-02T15:05:01.629Z,43.5
2023-04-02T15:10:00.287Z,44.5
2023-04-02T15:15:00.297Z,44.0
2023-04-02T15:20:00.244Z,45.1
2023-04-02T15:25:00.291Z,45.5
2023-04-02T15:30:00.258Z,47.5
2023-04-02T15:35:00.307Z,47.5
2023-04-02T15:40:00.240Z,47.9
2023-04-02T15:45:00.326Z,48.8
2023-04-02T15:50:00.240Z,49.0
2023-04-02T15:55:00.290Z,50.3
2023-04-02T16:00:00.288Z,49.3
2023-04-02T16:05:00.293Z,48.1
2023-04-02T16:10:00.250Z,48.3
2023-04-02T16:15:00.289Z,49.1
2023-04-02T16:20:00.244Z,49.1
2023-04-02T16:25:00.294Z,49.4
2023-04-02T16:30:00.302Z,50.0
2023-04-02T16:35:15.244Z,53.6
2023-04-02T16:40:00.271Z,50.3
2023-04-02T16:45:00.316Z,46.7
2023-04-02T16:50:00.280Z,46.5
2023-04-02T16:55:00.301Z,47.0
2023-04-02T17:00:00.239Z,47.9
2023-04-02T17:05:00.313Z,47.3
2023-04-02T17:10:00.285Z,46.3
2023-04-02T17:15:00.474Z,47.3
2023-04-02T17:20:00.281Z,48.4
2023-04-02T17:25:00.290Z,47.5
2023-04-02T17:30:00.254Z,48.7
2023-04-02T17:35:00.323Z,49.1
2023-04-02T17:40:00.300Z,49.1
2023-04-02T17:45:00.301Z,50.0
2023-04-02T17:50:00.244Z,50.1
2023-04-02T17:55:00.293Z,50.4
2023-04-02T18:00:00.292Z,50.7
2023-04-02T18:05:00.294Z,51.2
2023-04-02T18:10:00.257Z,51.8
2023-04-02T18:15:00.290Z,52.4
2023-04-02T18:20:00.287Z,52.4
2023-04-02T18:25:00.297Z,53.0
2023-04-02T18:30:00.273Z,52.9
2023-04-02T18:35:00.342Z,52.7
2023-04-02T18:40:00.258Z,52.6
2023-04-02T18:45:00.368Z,52.7
2023-04-02T18:50:00.295Z,52.0
2023-04-02T18:55:00.461Z,52.3
2023-04-02T19:00:00.248Z,52.3
2023-04-02T19:05:00.273Z,52.0
2023-04-02T19:10:00.285Z,51.2
2023-04-02T19:15:00.331Z,51.8
2023-04-02T19:20:00.261Z,51.9
2023-04-02T19:25:00.843Z,52.8
2023-04-02T19:30:00.262Z,53.6
2023-04-02T19:35:00.314Z,53.9
2023-04-02T19:40:00.288Z,54.5
2023-04-02T19:45:00.398Z,55.3
2023-04-02T19:50:00.251Z,55.5
2023-04-02T19:55:00.307Z,55.5
2023-04-02T20:00:00.287Z,55.9
2023-04-02T20:05:00.295Z,56.2
2023-04-02T20:10:00.302Z,56.6
2023-04-02T20:15:00.285Z,57.1
2023-04-02T20:20:00.283Z,57.4
2023-04-02T20:25:00.287Z,58.1
2023-04-02T20:30:00.306Z,59.2
2023-04-02T20:35:00.309Z,59.8
2023-04-02T20:40:00.284Z,60.2
2023-04-02T20:45:00.309Z,60.7
2023-04-02T20:50:00.257Z,61.4
2023-04-02T20:55:00.291Z,61.5
2023-04-02T21:00:00.282Z,61.3
2023-04-02T21:05:00.371Z,61.6
2023-04-02T21:10:00.265Z,62.1
2023-04-02T21:15:02.491Z,62.7
2023-04-02T21:20:00.285Z,62.5
2023-04-02T21:25:00.316Z,63.1
2023-04-02T21:30:00.260Z,62.9
2023-04-02T21:35:00.296Z,63.2
2023-04-02T21:40:00.327Z,63.7
2023-04-02T21:45:00.289Z,63.9
2023-04-02T21:50:00.248Z,63.4
2023-04-02T21:55:00.294Z,63.7
2023-04-02T22:00:00.289Z,63.2
2023-04-02T22:05:00.296Z,63.3
2023-04-02T22:10:00.280Z,63.6
2023-04-02T22:15:00.316Z,65.5
2023-04-02T22:20:00.247Z,63.7
2023-04-02T22:25:00.309Z,63.7
2023-04-02T22:30:00.261Z,63.9
2023-04-02T22:35:00.293Z,64.4
2023-04-02T22:40:00.270Z,64.7
2023-04-02T22:45:00.291Z,64.7
2023-04-02T22:50:00.253Z,65.0
2023-04-02T22:55:00.286Z,65.3
2023-04-02T23:00:00.253Z,66.1
2023-04-02T23:05:00.342Z,65.8
2023-04-02T23:10:00.281Z,66.0
2023-04-02T23:15:00.281Z,66.2
2023-04-02T23:20:00.291Z,66.3
2023-04-02T23:25:00.257Z,66.3
2023-04-02T23:30:00.271Z,66.8
2023-04-02T23:35:00.287Z,67.0
2023-04-02T23:40:00.276Z,67.0
2023-04-02T23:45:00.280Z,67.1
2023-04-02T23:50:00.308Z,67.7
2023-04-02T23:55:00.300Z,67.3
